Argonne, Wisconsin
Current Conditions -  °F | °C
As of 4:55 PM on Sunday 21 Dec 2014 (Local Time) from KEGV Reporting Station
Light Snow Light Snow  
Wind Chill: 24°   Ceiling: 600
Heat Index: 32°   Visibility: 1.5mi
Dew Point: 32°   Wind: 10mph
Humidity: 100%   Direction: 160°SSE
Pressure: 29.86"   Gusts: 16mph
Location:  45.66°N, 88.88°W
Report Text: KEGV 212255Z AUTO 16009G14KT 1 1/2SM -SN OVC006 00/00 A2986 RMK AO2 T00000000
Loading
Personal Weather Stations






























Interactive Weather Map New forecast layout! Learn more

10-Day Weather Forecast

Advertisements
Track Severe Weather on mobile